createdAt,value
2019-05-06T17:46:22.232Z,99180.64
2019-05-06T17:49:15.742Z,99177.02
2019-05-06T17:52:08.839Z,99178.98
2019-05-06T17:54:40.394Z,99176.64
2019-05-06T17:57:12.326Z,99170.03
2019-05-06T17:59:44.915Z,99181.20
2019-05-06T18:02:19.671Z,99186.77
2019-05-06T18:04:50.372Z,99211.08
2019-05-06T18:07:22.325Z,99206.81
2019-05-06T18:09:53.543Z,99220.45
2019-05-06T18:12:25.387Z,99234.26
2019-05-06T18:14:56.151Z,99241.80
2019-05-06T18:17:26.864Z,99230.13
2019-05-06T18:19:59.565Z,99234.06
2019-05-06T18:22:32.383Z,99231.59
2019-05-06T18:25:02.613Z,99237.05
2019-05-06T18:27:33.327Z,99246.57
2019-05-06T18:30:17.788Z,99242.59
2019-05-06T18:32:38.664Z,99236.59
2019-05-06T18:35:12.973Z,99231.05
2019-05-06T18:37:45.638Z,99214.93
2019-05-06T18:40:18.042Z,99214.13
2019-05-06T18:42:49.111Z,99233.97
2019-05-06T18:45:22.047Z,99240.82
2019-05-06T18:47:53.874Z,99243.60
2019-05-06T18:50:24.560Z,99246.35
2019-05-06T18:52:55.148Z,99246.30
2019-05-06T18:55:26.922Z,99246.30
2019-05-06T18:57:57.343Z,99241.48
2019-05-06T19:00:27.906Z,99250.10
2019-05-06T19:02:58.586Z,99251.53
2019-05-06T19:05:34.550Z,99250.73
2019-05-06T19:08:08.550Z,99247.20
2019-05-06T19:10:39.250Z,99260.80
2019-05-06T19:16:51.823Z,99259.48
2019-05-06T19:22:00.307Z,99255.74
2019-05-06T19:24:33.647Z,99255.11
2019-05-06T19:27:04.392Z,99243.56
2019-05-06T19:29:35.068Z,99243.88
2019-05-06T19:32:05.829Z,99250.75
2019-05-06T19:34:36.865Z,99267.57
2019-05-06T19:37:07.174Z,99271.83
2019-05-06T19:39:38.411Z,99267.74
2019-05-06T19:42:09.129Z,99260.24
2019-05-06T19:44:39.818Z,99247.37
2019-05-06T19:47:10.607Z,99250.92
2019-05-06T19:49:42.435Z,99245.56
2019-05-06T19:52:13.641Z,99258.78
2019-05-06T19:54:44.145Z,99260.14
2019-05-06T19:57:16.095Z,99260.77
2019-05-06T19:59:46.681Z,99272.52
2019-05-06T20:02:17.209Z,99278.91
2019-05-06T20:04:53.235Z,99279.38
2019-05-06T20:07:45.862Z,99283.52
2019-05-06T20:10:52.739Z,99291.74
2019-05-06T20:13:24.152Z,99297.88
2019-05-06T20:15:55.358Z,99297.38
2019-05-06T20:18:25.756Z,99307.92
2019-05-06T20:20:56.327Z,99300.94
2019-05-06T20:23:27.598Z,99304.61
2019-05-06T20:25:58.414Z,99300.37
2019-05-06T20:28:28.894Z,99294.20
2019-05-06T20:30:59.491Z,99290.27
2019-05-06T20:33:32.512Z,99286.78
2019-05-06T20:36:04.086Z,99288.19
2019-05-06T20:38:34.810Z,99287.14
2019-05-06T20:41:06.794Z,99285.09
2019-05-06T20:43:37.125Z,99286.88
2019-05-06T20:46:07.619Z,99283.37
2019-05-06T20:48:38.005Z,99287.09
2019-05-06T20:51:08.555Z,99287.88
2019-05-06T20:53:38.911Z,99283.94
2019-05-06T20:56:09.236Z,99281.40
2019-05-06T20:58:41.843Z,99283.45
2019-05-06T21:01:11.737Z,99283.30
2019-05-06T21:03:42.520Z,99283.30
2019-05-06T21:06:13.567Z,99283.93
2019-05-06T21:08:44.028Z,99283.55
2019-05-06T21:11:25.897Z,99282.86
2019-05-06T21:13:46.972Z,99285.23
2019-05-06T21:16:17.653Z,99281.98
2019-05-06T21:18:48.263Z,99280.38
2019-05-06T21:21:18.774Z,99274.91
2019-05-06T21:23:52.437Z,99274.55
2019-05-06T21:26:24.518Z,99275.45
2019-05-06T21:28:54.923Z,99278.47
2019-05-06T21:31:25.574Z,99284.63
2019-05-06T21:33:56.060Z,99286.03
2019-05-06T21:36:26.606Z,99286.41
2019-05-06T21:38:57.056Z,99287.82
2019-05-06T21:41:27.661Z,99296.98
2019-05-06T21:43:59.042Z,99306.47
2019-05-06T21:46:31.903Z,99311.34
2019-05-06T21:49:03.262Z,99313.38
2019-05-06T21:51:33.649Z,99309.30
2019-05-06T21:54:12.530Z,99312.10
2019-05-06T21:56:44.023Z,99317.31
2019-05-06T21:59:15.464Z,99308.08
2019-05-06T22:01:46.692Z,99311.62
2019-05-06T22:04:17.320Z,99303.13
2019-05-06T22:06:47.983Z,99309.98
2019-05-06T22:09:22.230Z,99313.33
2019-05-06T22:11:53.146Z,99310.08
2019-05-06T22:14:24.428Z,99318.19
2019-05-06T22:16:54.928Z,99321.79
2019-05-06T22:19:25.512Z,99312.76
2019-05-06T22:22:08.597Z,99320.92
2019-05-06T22:24:57.663Z,99318.87
2019-05-06T22:27:27.078Z,99314.75
2019-05-06T22:29:58.791Z,99322.55
2019-05-06T22:32:33.157Z,99323.47
2019-05-06T22:35:04.706Z,99321.52
2019-05-06T22:37:36.707Z,99317.78
2019-05-06T22:40:07.639Z,99315.59
2019-05-06T22:42:39.298Z,99322.30
2019-05-06T22:45:12.557Z,99323.97
2019-05-06T22:47:43.385Z,99327.21
2019-05-06T22:50:14.278Z,99331.72
2019-05-06T22:53:54.724Z,99323.09
2019-05-06T22:56:25.589Z,99325.59
2019-05-06T22:58:56.239Z,99318.87
2019-05-06T23:01:44.581Z,99317.59
2019-05-06T23:04:17.233Z,99314.91
2019-05-06T23:06:48.159Z,99315.64
2019-05-06T23:09:18.940Z,99286.78
2019-05-06T23:11:49.733Z,99312.22
2019-05-06T23:14:30.594Z,99309.34
2019-05-06T23:16:53.751Z,99329.72
2019-05-06T23:19:24.655Z,99322.69
2019-05-06T23:21:55.833Z,99322.63
2019-05-06T23:24:26.507Z,99319.23
2019-05-06T23:26:56.831Z,99318.00
2019-05-06T23:29:27.604Z,99331.83
2019-05-06T23:31:58.206Z,99331.88
2019-05-06T23:34:28.697Z,99334.64
2019-05-06T23:37:22.504Z,99323.31
2019-05-06T23:40:33.345Z,99333.19
2019-05-06T23:43:39.014Z,99329.11
2019-05-06T23:46:44.875Z,99325.46
2019-05-06T23:49:52.691Z,99314.69
2019-05-06T23:52:59.053Z,99316.95
2019-05-06T23:56:05.013Z,99316.08
2019-05-06T23:58:35.535Z,99324.02
